Time;durP1;ratioP1;P1;durP2;ratioP2;P2;SDS_P1;SDS_P2;PMS_P1;PMS_P2;Temp;Humidity;BMP_temperature;BMP_pressure;BME280_temperature;BME280_humidity;BME280_pressure;Samples;Min_cycle;Max_cycle;Signal;HPM_P1;HPM_P2
2021/11/16 00:00:54;;;;;;;5.95;2.45;;;6.40;90.30;;;;;;4936934;29;20041;-82
2021/11/16 00:03:20;;;;;;;6.80;2.50;;;6.40;90.30;;;;;;4863109;29;20104;-81
2021/11/16 00:05:46;;;;;;;6.57;2.30;;;6.60;90.40;;;;;;4891990;29;20040;-78
2021/11/16 00:08:12;;;;;;;5.95;2.03;;;6.40;90.30;;;;;;4915076;29;20040;-79
2021/11/16 00:10:38;;;;;;;4.50;2.13;;;6.50;90.30;;;;;;4902218;29;20059;-80
2021/11/16 00:13:10;;;;;;;5.20;2.22;;;6.40;90.20;;;;;;4887523;29;20406;-79
2021/11/16 00:15:41;;;;;;;6.05;2.28;;;6.40;90.20;;;;;;4878110;29;20052;-79
2021/11/16 00:18:10;;;;;;;4.22;1.90;;;6.40;90.20;;;;;;4910489;29;20056;-79
2021/11/16 00:20:42;;;;;;;4.63;1.90;;;6.40;90.30;;;;;;4913523;29;20065;-79
2021/11/16 00:23:15;;;;;;;4.50;1.92;;;6.50;90.30;;;;;;4908931;29;20048;-81
2021/11/16 00:25:42;;;;;;;3.67;1.90;;;6.50;90.30;;;;;;4892202;29;20048;-83
2021/11/16 00:28:08;;;;;;;5.55;2.35;;;6.40;90.20;;;;;;4875754;29;20146;-79
2021/11/16 00:30:34;;;;;;;4.05;2.08;;;6.50;90.20;;;;;;4904676;29;20044;-79
2021/11/16 00:32:59;;;;;;;3.85;1.80;;;6.40;90.30;;;;;;4891049;29;20091;-79
2021/11/16 00:35:25;;;;;;;4.18;1.90;;;6.40;90.20;;;;;;4926001;29;20048;-78
2021/11/16 00:37:51;;;;;;;5.05;1.95;;;6.40;90.30;;;;;;4930781;29;20039;-79
2021/11/16 00:40:19;;;;;;;4.57;2.17;;;6.50;90.30;;;;;;4920592;29;20447;-78
2021/11/16 00:42:48;;;;;;;4.50;2.03;;;6.50;90.30;;;;;;4942163;29;20043;-78
2021/11/16 00:45:14;;;;;;;3.53;1.75;;;6.50;90.30;;;;;;4928130;29;20111;-78
2021/11/16 00:47:42;;;;;;;3.17;1.70;;;6.50;90.30;;;;;;4946602;29;20047;-79
2021/11/16 00:50:09;;;;;;;3.58;1.52;;;6.50;90.20;;;;;;4943124;29;20043;-78
2021/11/16 00:52:36;;;;;;;3.80;1.77;;;6.50;90.30;;;;;;4911774;29;20066;-78
2021/11/16 00:55:02;;;;;;;6.35;2.40;;;6.40;90.20;;;;;;4928383;29;20068;-79
2021/11/16 00:57:29;;;;;;;5.93;2.30;;;6.40;90.20;;;;;;4890166;29;20040;-79
2021/11/16 00:59:55;;;;;;;4.47;2.00;;;6.40;90.30;;;;;;4904433;29;20056;-78
2021/11/16 01:02:21;;;;;;;5.93;2.30;;;6.50;90.30;;;;;;4939178;29;20455;-79
2021/11/16 01:04:49;;;;;;;5.18;2.13;;;6.50;90.30;;;;;;4890423;29;20051;-78
2021/11/16 01:07:16;;;;;;;5.75;2.08;;;6.50;90.30;;;;;;4933772;29;20036;-78
2021/11/16 01:09:43;;;;;;;5.60;2.17;;;6.50;90.30;;;;;;4936466;29;20126;-78
2021/11/16 01:12:10;;;;;;;3.20;1.60;;;6.50;90.30;;;;;;4918258;29;20043;-80
2021/11/16 01:14:36;;;;;;;3.47;1.90;;;6.50;90.30;;;;;;4935527;29;20455;-78
2021/11/16 01:17:02;;;;;;;4.57;1.92;;;6.50;90.30;;;;;;4933142;29;20134;-78
2021/11/16 01:19:28;;;;;;;6.25;2.00;;;6.50;90.30;;;;;;4934877;29;20171;-78
2021/11/16 01:21:54;;;;;;;4.32;1.80;;;6.50;90.30;;;;;;4917983;29;20051;-79
2021/11/16 01:24:20;;;;;;;5.82;2.55;;;6.50;90.30;;;;;;4916497;29;20043;-78
2021/11/16 01:26:48;;;;;;;5.75;2.55;;;6.50;90.30;;;;;;4934917;29;20119;-79
2021/11/16 01:29:14;;;;;;;5.90;2.53;;;6.40;90.30;;;;;;4934791;29;20047;-79
2021/11/16 01:31:40;;;;;;;3.58;1.83;;;6.60;90.30;;;;;;4932764;29;20051;-78
2021/11/16 01:34:07;;;;;;;5.25;2.50;;;6.50;90.30;;;;;;4902065;29;20099;-79
2021/11/16 01:36:33;;;;;;;5.40;2.20;;;6.40;90.30;;;;;;4915753;29;20075;-79
2021/11/16 01:39:00;;;;;;;5.10;2.03;;;6.50;90.30;;;;;;4933957;29;20060;-78
2021/11/16 01:41:29;;;;;;;4.15;2.03;;;6.40;90.30;;;;;;4932757;29;20043;-79
2021/11/16 01:43:55;;;;;;;3.88;1.75;;;6.40;90.30;;;;;;4932655;29;20062;-78
2021/11/16 01:46:21;;;;;;;4.32;1.75;;;6.40;90.30;;;;;;4932514;29;20050;-78
2021/11/16 01:48:52;;;;;;;5.88;2.25;;;6.40;90.30;;;;;;4934613;29;20051;-79
2021/11/16 01:51:20;;;;;;;5.95;2.45;;;6.40;90.30;;;;;;4932500;29;20098;-79
2021/11/16 01:53:48;;;;;;;3.65;1.75;;;6.40;90.30;;;;;;4917484;29;20074;-78
2021/11/16 01:56:14;;;;;;;3.40;1.65;;;6.40;90.30;;;;;;4917707;29;20043;-79
2021/11/16 01:58:40;;;;;;;5.47;2.10;;;6.50;90.30;;;;;;4918055;29;20053;-78
2021/11/16 02:01:06;;;;;;;3.92;1.60;;;6.40;90.30;;;;;;4934769;29;20517;-78
2021/11/16 02:03:32;;;;;;;3.38;1.48;;;6.50;90.30;;;;;;4934526;29;20039;-78
2021/11/16 02:06:16;;;;;;;3.50;1.52;;;6.40;90.30;;;;;;4930890;29;20043;-78
2021/11/16 02:08:41;;;;;;;5.20;1.92;;;6.40;90.30;;;;;;4916397;29;20075;-78
2021/11/16 02:11:07;;;;;;;2.90;1.58;;;6.40;90.30;;;;;;4934500;29;20072;-78
2021/11/16 02:13:33;;;;;;;4.13;1.85;;;6.40;90.30;;;;;;4930975;29;20106;-78
2021/11/16 02:15:59;;;;;;;4.10;1.95;;;6.30;90.30;;;;;;4917576;29;20048;-78
2021/11/16 02:18:24;;;;;;;5.38;2.25;;;6.40;90.30;;;;;;4935372;29;20050;-78
2021/11/16 02:20:51;;;;;;;4.55;1.83;;;6.40;90.30;;;;;;4917835;29;20474;-78
2021/11/16 02:23:18;;;;;;;3.70;1.50;;;6.40;90.30;;;;;;4901611;29;20821;-78
2021/11/16 02:25:45;;;;;;;4.60;1.98;;;6.40;90.40;;;;;;4935077;29;20118;-78
2021/11/16 02:28:15;;;;;;;4.10;1.90;;;6.30;90.30;;;;;;4938628;29;20040;-80
2021/11/16 02:30:40;;;;;;;3.58;1.65;;;6.40;90.30;;;;;;4937949;29;20052;-78
2021/11/16 02:33:06;;;;;;;5.47;2.45;;;6.30;90.30;;;;;;4932690;29;20043;-78
2021/11/16 02:35:32;;;;;;;4.63;1.80;;;6.30;90.30;;;;;;4938064;29;20040;-78
2021/11/16 02:37:58;;;;;;;4.00;1.95;;;6.40;90.40;;;;;;4938409;29;20131;-78
2021/11/16 02:40:25;;;;;;;3.50;1.73;;;6.40;90.30;;;;;;4920870;29;20047;-78
2021/11/16 02:42:52;;;;;;;5.10;2.08;;;6.50;90.40;;;;;;4937741;29;20529;-78
2021/11/16 02:45:18;;;;;;;5.03;1.90;;;6.40;90.30;;;;;;4938331;29;20040;-78
2021/11/16 02:47:45;;;;;;;3.88;1.67;;;6.30;90.30;;;;;;4921125;29;20070;-78
2021/11/16 02:50:11;;;;;;;4.55;2.00;;;6.40;90.30;;;;;;4937634;29;20071;-78
2021/11/16 02:52:37;;;;;;;3.83;2.05;;;6.40;90.30;;;;;;4937068;29;20078;-78
2021/11/16 02:55:05;;;;;;;3.05;1.40;;;6.40;90.40;;;;;;4937901;29;20047;-78
2021/11/16 02:57:31;;;;;;;3.80;1.90;;;6.40;90.40;;;;;;4916510;29;20063;-78
2021/11/16 02:59:57;;;;;;;4.65;1.90;;;6.40;90.40;;;;;;4920335;29;20048;-78
2021/11/16 03:02:23;;;;;;;4.32;1.80;;;6.40;90.40;;;;;;4937260;29;20130;-79
2021/11/16 03:04:50;;;;;;;5.32;1.88;;;6.30;90.30;;;;;;4920326;29;20048;-78
2021/11/16 03:07:38;;;;;;;4.90;2.05;;;6.30;90.30;;;;;;4936362;29;20115;-78
2021/11/16 03:10:05;;;;;;;3.53;1.40;;;6.30;90.30;;;;;;4937357;29;20095;-78
2021/11/16 03:12:31;;;;;;;4.40;1.63;;;6.30;90.30;;;;;;4919604;29;20118;-78
2021/11/16 03:14:58;;;;;;;4.03;1.83;;;6.40;90.40;;;;;;4918233;29;20087;-78
2021/11/16 03:17:25;;;;;;;3.70;1.55;;;6.40;90.40;;;;;;4920595;29;20182;-78
2021/11/16 03:19:52;;;;;;;4.18;1.80;;;6.40;90.40;;;;;;4936884;29;20079;-77
2021/11/16 03:22:21;;;;;;;3.13;1.63;;;6.40;90.40;;;;;;4936323;29;20043;-80
2021/11/16 03:24:47;;;;;;;4.43;1.75;;;6.40;90.40;;;;;;4920947;29;20036;-78
2021/11/16 03:27:15;;;;;;;4.32;1.80;;;6.30;90.30;;;;;;4937044;29;20517;-78
2021/11/16 03:29:47;;;;;;;2.92;1.40;;;6.30;90.30;;;;;;4920256;29;20044;-78
2021/11/16 03:32:17;;;;;;;3.17;1.50;;;6.40;90.30;;;;;;4937393;29;20047;-78
2021/11/16 03:34:45;;;;;;;3.30;1.67;;;6.40;90.40;;;;;;4937192;29;20039;-78
2021/11/16 03:37:12;;;;;;;4.53;1.52;;;6.40;90.40;;;;;;4919897;29;20050;-78
2021/11/16 03:39:38;;;;;;;2.90;1.38;;;6.40;90.30;;;;;;4920855;29;20394;-78
2021/11/16 03:42:06;;;;;;;3.53;1.60;;;6.50;90.40;;;;;;4904437;29;20090;-78
2021/11/16 03:44:33;;;;;;;3.00;1.38;;;6.40;90.40;;;;;;4937457;29;20044;-78
2021/11/16 03:46:59;;;;;;;3.25;1.42;;;6.40;90.40;;;;;;4911831;29;20433;-78
2021/11/16 03:49:25;;;;;;;3.55;1.50;;;6.40;90.40;;;;;;4936181;29;20055;-78
2021/11/16 03:51:53;;;;;;;4.40;1.80;;;6.40;90.40;;;;;;4919620;29;20043;-79
2021/11/16 03:54:20;;;;;;;4.15;1.75;;;6.50;90.40;;;;;;4920266;29;20129;-79
2021/11/16 03:56:46;;;;;;;4.93;2.25;;;6.40;90.40;;;;;;4919561;29;20056;-79
2021/11/16 03:59:12;;;;;;;4.75;2.00;;;6.30;90.40;;;;;;4902043;29;20051;-79
2021/11/16 04:01:38;;;;;;;4.30;1.80;;;6.40;90.40;;;;;;4907396;29;20070;-79
2021/11/16 04:04:05;;;;;;;4.18;1.73;;;6.40;90.40;;;;;;4919798;29;20044;-79
2021/11/16 04:06:31;;;;;;;5.13;2.00;;;6.30;90.40;;;;;;4920104;29;20047;-79
2021/11/16 04:08:58;;;;;;;4.32;1.88;;;6.40;90.40;;;;;;4915123;29;20158;-79
2021/11/16 04:11:26;;;;;;;3.85;1.65;;;6.30;90.40;;;;;;4919459;29;20123;-79
2021/11/16 04:13:52;;;;;;;4.80;2.30;;;6.40;90.40;;;;;;4919984;29;20040;-79
2021/11/16 04:16:19;;;;;;;3.60;1.77;;;6.40;90.40;;;;;;4904257;29;20090;-79
2021/11/16 04:18:45;;;;;;;4.55;1.65;;;6.40;90.40;;;;;;4906480;29;20059;-79
2021/11/16 04:21:11;;;;;;;2.83;1.48;;;6.40;90.40;;;;;;4919055;29;20084;-79
2021/11/16 04:23:37;;;;;;;2.00;1.33;;;6.50;90.40;;;;;;4936030;29;20067;-79
2021/11/16 04:26:03;;;;;;;2.92;1.38;;;6.40;90.40;;;;;;4911784;29;20044;-79
2021/11/16 04:28:29;;;;;;;4.03;1.58;;;6.40;90.40;;;;;;4935756;29;20091;-79
2021/11/16 04:30:59;;;;;;;3.25;1.30;;;6.40;90.40;;;;;;4887498;29;20048;-79
2021/11/16 04:33:25;;;;;;;2.95;1.48;;;6.40;90.40;;;;;;4935666;29;20079;-78
2021/11/16 04:35:51;;;;;;;3.15;1.55;;;6.40;90.40;;;;;;4902183;29;20126;-78
2021/11/16 04:38:18;;;;;;;2.85;1.35;;;6.40;90.50;;;;;;4910347;29;20494;-78
2021/11/16 04:40:49;;;;;;;2.80;1.38;;;6.40;90.50;;;;;;4908992;29;20195;-77
2021/11/16 04:43:19;;;;;;;3.10;1.45;;;6.40;90.50;;;;;;4935843;29;20039;-78
2021/11/16 04:45:50;;;;;;;4.85;1.85;;;6.40;90.50;;;;;;4937590;29;20040;-78
2021/11/16 04:48:46;;;;;;;2.40;1.37;;;6.30;90.50;;;;;;4935321;29;20087;-78
2021/11/16 04:54:02;;;;;;;2.80;1.30;;;6.40;90.50;;;;;;4920898;29;20126;-78
2021/11/16 05:04:33;;;;;;;4.53;1.80;;;6.40;90.50;;;;;;4934874;29;21231;-78
2021/11/16 05:07:00;;;;;;;5.18;2.00;;;6.40;90.50;;;;;;4919271;29;20072;-78
2021/11/16 05:09:26;;;;;;;4.32;1.83;;;6.40;90.50;;;;;;4936513;29;20044;-79
2021/11/16 05:11:51;;;;;;;3.20;1.75;;;6.30;90.50;;;;;;4936199;29;20119;-78
2021/11/16 05:14:17;;;;;;;3.53;1.58;;;6.30;90.50;;;;;;4935472;29;20111;-78
2021/11/16 05:16:43;;;;;;;5.07;2.20;;;6.30;90.50;;;;;;4935447;29;20056;-78
2021/11/16 05:19:09;;;;;;;4.70;2.08;;;6.30;90.50;;;;;;4935545;29;20052;-78
2021/11/16 05:21:34;;;;;;;4.60;2.00;;;6.40;90.60;;;;;;4935072;29;20106;-77
2021/11/16 05:24:01;;;;;;;4.55;1.60;;;6.30;90.50;;;;;;4933629;29;20076;-78
2021/11/16 05:26:28;;;;;;;6.28;2.17;;;6.30;90.50;;;;;;4935735;29;20051;-77
2021/11/16 05:28:56;;;;;;;4.38;2.00;;;6.20;90.50;;;;;;4935088;29;20402;-79
2021/11/16 05:31:22;;;;;;;4.78;1.90;;;6.30;90.50;;;;;;4935228;29;20127;-78
2021/11/16 05:33:49;;;;;;;5.15;2.13;;;6.40;90.60;;;;;;4935252;29;20065;-78
2021/11/16 05:36:16;;;;;;;4.70;1.98;;;6.30;90.50;;;;;;4936051;29;20111;-78
2021/11/16 05:38:43;;;;;;;3.60;1.60;;;6.40;90.50;;;;;;4935115;29;20498;-78
2021/11/16 05:41:09;;;;;;;3.85;1.65;;;6.40;90.50;;;;;;4919471;29;20039;-78
2021/11/16 05:43:36;;;;;;;4.47;1.80;;;6.40;90.50;;;;;;4934634;29;20410;-78
2021/11/16 05:46:03;;;;;;;4.07;1.70;;;6.30;90.50;;;;;;4918221;29;20095;-78
2021/11/16 05:48:35;;;;;;;4.35;1.73;;;6.30;90.50;;;;;;4918808;29;20107;-79
2021/11/16 05:51:01;;;;;;;4.35;1.83;;;6.30;90.50;;;;;;4918843;29;20402;-78
2021/11/16 05:53:27;;;;;;;4.53;1.85;;;6.30;90.50;;;;;;4933070;29;20055;-79
2021/11/16 05:55:52;;;;;;;4.47;1.60;;;6.30;90.50;;;;;;4886614;29;20857;-79
2021/11/16 05:58:20;;;;;;;6.65;2.80;;;6.30;90.60;;;;;;4917823;29;20043;-79
2021/11/16 06:00:47;;;;;;;4.97;2.00;;;6.30;90.60;;;;;;4934444;29;20047;-80
2021/11/16 06:03:13;;;;;;;7.97;2.65;;;6.30;90.60;;;;;;4919384;29;20044;-79
2021/11/16 06:05:39;;;;;;;5.63;2.33;;;6.20;90.60;;;;;;4902106;29;20410;-78
2021/11/16 06:08:06;;;;;;;6.80;2.53;;;6.20;90.60;;;;;;4918219;29;20187;-78
2021/11/16 06:10:33;;;;;;;3.05;1.80;;;6.20;90.60;;;;;;4935593;29;20047;-78
2021/11/16 06:12:58;;;;;;;4.75;1.98;;;6.20;90.60;;;;;;4935597;29;20054;-78
2021/11/16 06:15:24;;;;;;;3.42;1.65;;;6.30;90.60;;;;;;4917958;29;20051;-78
2021/11/16 06:17:50;;;;;;;3.25;1.77;;;6.20;90.60;;;;;;4934781;29;20536;-78
2021/11/16 06:20:20;;;;;;;4.85;2.05;;;6.40;90.60;;;;;;4916081;29;20504;-79
2021/11/16 06:22:47;;;;;;;4.07;1.63;;;6.20;90.60;;;;;;4934484;29;20498;-79
2021/11/16 06:25:13;;;;;;;4.60;2.05;;;6.30;90.60;;;;;;4935232;29;20048;-78
2021/11/16 06:27:39;;;;;;;7.20;2.15;;;6.20;90.60;;;;;;4917355;29;20069;-78
2021/11/16 06:30:06;;;;;;;4.55;1.88;;;6.20;90.60;;;;;;4934709;29;20094;-79
2021/11/16 06:32:32;;;;;;;5.63;2.15;;;6.30;90.60;;;;;;4902086;29;20135;-79
2021/11/16 06:34:58;;;;;;;3.78;2.00;;;6.20;90.60;;;;;;4902471;29;20134;-79
2021/11/16 06:37:24;;;;;;;4.18;1.58;;;6.20;90.60;;;;;;4918332;29;20044;-79
2021/11/16 06:39:50;;;;;;;4.00;1.65;;;6.10;90.60;;;;;;4909775;29;20048;-79
2021/11/16 06:42:16;;;;;;;4.60;1.75;;;6.20;90.70;;;;;;4934489;29;20131;-78
2021/11/16 06:44:42;;;;;;;3.65;1.60;;;6.10;90.60;;;;;;4917677;29;20122;-79
2021/11/16 06:47:13;;;;;;;5.05;1.85;;;6.20;90.90;;;;;;4918011;29;20027;-79
2021/11/16 06:49:41;;;;;;;6.15;2.20;;;6.10;90.70;;;;;;4934540;29;20035;-79
2021/11/16 06:52:08;;;;;;;3.88;1.70;;;6.10;90.70;;;;;;4917767;29;20044;-79
2021/11/16 06:54:33;;;;;;;5.78;2.33;;;6.10;90.70;;;;;;4932924;29;20044;-79
2021/11/16 06:56:59;;;;;;;4.43;2.00;;;6.10;90.70;;;;;;4917638;29;20104;-78
2021/11/16 06:59:26;;;;;;;5.30;1.92;;;6.10;90.70;;;;;;4934416;29;20083;-78
2021/11/16 07:01:53;;;;;;;6.20;2.30;;;6.10;90.70;;;;;;4933257;29;20042;-79
2021/11/16 07:04:20;;;;;;;4.68;2.13;;;6.10;90.70;;;;;;4935255;29;20040;-77
2021/11/16 07:06:48;;;;;;;3.92;1.70;;;6.10;90.70;;;;;;4929481;29;20481;-77
2021/11/16 07:09:15;;;;;;;4.35;2.08;;;6.10;90.70;;;;;;4915477;29;20071;-77
2021/11/16 07:11:44;;;;;;;5.50;2.20;;;6.10;90.70;;;;;;4923144;29;20051;-77
2021/11/16 07:14:12;;;;;;;3.80;1.88;;;6.10;90.70;;;;;;4899448;29;20082;-77
2021/11/16 07:16:43;;;;;;;3.85;1.70;;;6.10;90.80;;;;;;4946107;29;20098;-77
2021/11/16 07:19:11;;;;;;;4.55;1.88;;;6.10;90.70;;;;;;4945081;29;20047;-78
2021/11/16 07:21:48;;;;;;;3.47;1.70;;;6.10;90.80;;;;;;4949423;29;20151;-77
2021/11/16 07:24:16;;;;;;;3.95;1.52;;;6.10;90.80;;;;;;4920856;29;20095;-77
2021/11/16 07:26:42;;;;;;;4.57;1.50;;;6.10;90.80;;;;;;4935529;29;20063;-77
2021/11/16 07:29:13;;;;;;;4.97;1.92;;;6.10;90.80;;;;;;4951797;29;20050;-78
2021/11/16 07:31:41;;;;;;;3.83;1.70;;;6.10;90.80;;;;;;4930615;29;20048;-77
2021/11/16 07:34:18;;;;;;;3.75;1.73;;;6.10;90.80;;;;;;4949162;29;20044;-77
2021/11/16 07:36:56;;;;;;;4.43;1.83;;;6.10;90.80;;;;;;4947553;29;20039;-77
2021/11/16 07:39:24;;;;;;;6.35;2.42;;;6.00;91.10;;;;;;4945386;29;20058;-77
2021/11/16 07:41:51;;;;;;;4.80;1.80;;;6.00;90.80;;;;;;4933425;29;20379;-77
2021/11/16 07:44:17;;;;;;;4.40;1.63;;;6.10;90.90;;;;;;4952468;29;20040;-78
2021/11/16 07:46:57;;;;;;;3.78;1.80;;;6.00;90.90;;;;;;4947754;29;20066;-83
2021/11/16 07:49:24;;;;;;;5.28;1.90;;;6.10;90.90;;;;;;4898907;29;20116;-81
2021/11/16 07:51:55;;;;;;;4.55;1.80;;;6.10;90.80;;;;;;4883939;29;20522;-80
2021/11/16 07:54:24;;;;;;;;;;;6.00;90.80;;;;;;4868868;29;20053;-83
2021/11/16 07:57:29;;;;;;;4.00;1.55;;;6.10;90.80;;;;;;4903205;29;19923;-84
2021/11/16 08:04:53;;;;;;;3.95;1.83;;;6.10;90.80;;;;;;4803006;29;20046;-82
2021/11/16 08:11:42;;;;;;;3.07;1.40;;;6.20;90.80;;;;;;4723492;30;20084;-84
2021/11/16 08:14:17;;;;;;;3.20;1.23;;;6.10;90.70;;;;;;4725077;30;20139;-81
2021/11/16 08:17:17;;;;;;;3.30;1.27;;;6.20;90.70;;;;;;4700291;30;20520;-80
2021/11/16 08:19:43;;;;;;;3.78;1.33;;;6.20;90.70;;;;;;4714038;30;20155;-81
2021/11/16 08:22:12;;;;;;;3.88;1.63;;;6.00;90.70;;;;;;4764802;30;20082;-80
2021/11/16 08:24:42;;;;;;;4.25;1.60;;;6.20;90.80;;;;;;4777292;29;20078;-82
2021/11/16 08:27:20;;;;;;;4.03;1.50;;;6.10;90.80;;;;;;4802580;29;20061;-79
2021/11/16 08:29:51;;;;;;;6.82;1.77;;;6.10;90.80;;;;;;4809726;29;20039;-77
2021/11/16 08:32:21;;;;;;;4.80;1.50;;;6.20;90.90;;;;;;5107991;23;20050;-79
2021/11/16 08:34:54;;;;;;;3.45;1.60;;;6.30;90.90;;;;;;4951233;29;20055;-79
2021/11/16 08:37:25;;;;;;;3.13;1.30;;;6.20;90.80;;;;;;4944329;24;20047;-79
2021/11/16 08:40:01;;;;;;;2.92;1.35;;;6.20;90.80;;;;;;4893621;29;20048;-79
2021/11/16 08:42:31;;;;;;;3.25;1.48;;;6.30;90.90;;;;;;4898475;29;20029;-78
2021/11/16 08:45:14;;;;;;;3.23;1.40;;;6.20;90.80;;;;;;4911672;29;20082;-79
2021/11/16 08:47:44;;;;;;;3.38;1.50;;;6.30;90.90;;;;;;4985508;23;20351;-80
2021/11/16 08:50:20;;;;;;;3.10;1.20;;;6.30;90.80;;;;;;4952731;29;20083;-81
2021/11/16 08:52:47;;;;;;;4.00;1.30;;;6.20;90.80;;;;;;4949475;29;20047;-79
2021/11/16 08:55:18;;;;;;;2.70;1.13;;;6.30;90.90;;;;;;4938475;29;20043;-78
2021/11/16 08:57:48;;;;;;;4.35;1.67;;;6.30;90.80;;;;;;4938364;29;20130;-77
2021/11/16 09:00:31;;;;;;;2.85;1.30;;;6.30;90.80;;;;;;4956310;29;20055;-77
2021/11/16 09:03:13;;;;;;;3.63;1.30;;;6.50;90.90;;;;;;4977036;29;20039;-78
2021/11/16 09:05:45;;;;;;;4.00;1.35;;;6.40;90.80;;;;;;4976948;28;20055;-80
2021/11/16 09:08:23;;;;;;;3.95;1.48;;;6.40;90.80;;;;;;4957427;29;20051;-80
2021/11/16 09:10:55;;;;;;;3.72;1.70;;;6.40;90.80;;;;;;4903904;29;20070;-79
2021/11/16 09:13:29;;;;;;;3.35;1.23;;;6.50;90.70;;;;;;4940677;28;20024;-79
2021/11/16 09:16:02;;;;;;;3.85;1.52;;;6.50;90.80;;;;;;4933054;29;20178;-78
2021/11/16 09:18:39;;;;;;;3.95;1.30;;;6.40;90.80;;;;;;4930326;29;20126;-78
2021/11/16 09:21:08;;;;;;;4.63;1.75;;;6.40;90.80;;;;;;4938032;28;20039;-79
2021/11/16 09:23:40;;;;;;;3.60;1.30;;;6.40;90.80;;;;;;4949036;29;20055;-78
2021/11/16 09:26:10;;;;;;;4.30;1.52;;;6.50;90.90;;;;;;4957046;29;20067;-77
2021/11/16 09:28:43;;;;;;;3.20;1.40;;;6.40;90.90;;;;;;4930791;29;20056;-78
2021/11/16 09:31:29;;;;;;;3.78;1.60;;;6.40;90.80;;;;;;4934159;28;20044;-78
2021/11/16 09:33:59;;;;;;;2.67;1.30;;;6.40;90.90;;;;;;4972474;28;20074;-77
2021/11/16 09:36:28;;;;;;;2.95;1.30;;;6.40;90.90;;;;;;4971559;28;20062;-80
2021/11/16 09:39:06;;;;;;;5.05;1.80;;;6.40;90.90;;;;;;4940369;29;20036;-79
2021/11/16 09:41:40;;;;;;;3.78;1.50;;;6.40;90.90;;;;;;4930690;29;20057;-80
2021/11/16 09:44:43;;;;;;;2.50;1.38;;;6.30;90.80;;;;;;4924545;29;20043;-83
2021/11/16 09:47:18;;;;;;;3.30;1.33;;;6.50;90.90;;;;;;4939906;29;20094;-78
2021/11/16 09:49:48;;;;;;;3.35;1.27;;;6.50;90.90;;;;;;4954659;29;20067;-79
2021/11/16 09:52:18;;;;;;;4.90;1.92;;;6.40;90.80;;;;;;4939865;29;20047;-81
2021/11/16 09:55:08;;;;;;;4.72;1.77;;;6.50;90.80;;;;;;4908409;29;20039;-84
2021/11/16 09:57:39;;;;;;;3.38;1.60;;;6.50;90.80;;;;;;4913734;29;20133;-78
2021/11/16 10:00:13;;;;;;;3.25;1.30;;;6.50;90.80;;;;;;4898946;29;20120;-78
2021/11/16 10:02:44;;;;;;;3.35;1.15;;;6.50;90.80;;;;;;4881759;29;20230;-81
2021/11/16 10:05:30;;;;;;;2.80;1.42;;;6.50;90.80;;;;;;4871736;29;20041;-82
2021/11/16 10:07:59;;;;;;;2.72;1.30;;;6.60;90.90;;;;;;4877313;29;20060;-81
2021/11/16 10:10:33;;;;;;;2.28;1.10;;;6.60;90.80;;;;;;4888245;29;20051;-82
2021/11/16 10:13:03;;;;;;;1.83;1.02;;;6.60;91.10;;;;;;4878135;29;20595;-83
2021/11/16 10:15:31;;;;;;;2.65;1.40;;;6.60;90.80;;;;;;4876971;29;20072;-82
2021/11/16 10:18:19;;;;;;;3.53;1.65;;;6.60;90.80;;;;;;5091598;23;20063;-83
2021/11/16 10:20:57;;;;;;;3.67;1.40;;;6.60;90.80;;;;;;5006358;23;20044;-81
2021/11/16 10:23:41;;;;;;;2.30;1.08;;;6.70;90.80;;;;;;4923078;29;20134;-82
2021/11/16 10:26:10;;;;;;;3.63;1.63;;;6.70;90.80;;;;;;4906996;29;20038;-82
2021/11/16 10:28:39;;;;;;;3.20;1.38;;;6.70;90.80;;;;;;4903807;29;20040;-81
2021/11/16 10:31:19;;;;;;;2.80;1.20;;;6.70;90.80;;;;;;4934931;29;20078;-85
2021/11/16 10:34:08;;;;;;;2.50;1.30;;;6.70;90.80;;;;;;4888322;29;20216;-83
2021/11/16 10:36:45;;;;;;;3.13;1.02;;;6.60;90.80;;;;;;4850504;29;20052;-84
2021/11/16 10:39:40;;;;;;;2.28;1.10;;;6.60;90.80;;;;;;4863992;29;20049;-83
2021/11/16 10:42:16;;;;;;;3.65;1.60;;;6.70;90.80;;;;;;4858675;29;20041;-81
2021/11/16 10:44:59;;;;;;;2.80;1.25;;;6.70;90.80;;;;;;4843018;29;20033;-80
2021/11/16 10:47:40;;;;;;;3.17;1.25;;;6.70;90.80;;;;;;4811695;29;20072;-79
2021/11/16 10:50:11;;;;;;;3.17;1.17;;;6.70;91.10;;;;;;4829212;29;20042;-80
2021/11/16 10:52:38;;;;;;;3.28;1.33;;;6.70;90.80;;;;;;4813854;29;20069;-81
2021/11/16 10:55:05;;;;;;;2.72;1.10;;;6.70;90.90;;;;;;4829820;29;20038;-81
2021/11/16 10:58:05;;;;;;;2.83;1.33;;;6.70;90.80;;;;;;4830584;29;20045;-84
2021/11/16 11:00:36;;;;;;;3.00;1.08;;;6.70;90.80;;;;;;4815193;29;20178;-81
2021/11/16 11:03:11;;;;;;;;;;;6.80;90.80;;;;;;4816123;29;20985;-81
2021/11/16 11:05:36;;;;;;;2.28;1.17;;;6.90;90.80;;;;;;4896161;29;20492;-82
2021/11/16 11:08:02;;;;;;;1.20;0.75;;;6.70;90.70;;;;;;4902173;29;20079;-80
2021/11/16 11:10:43;;;;;;;3.45;1.33;;;6.70;90.70;;;;;;4902102;29;20051;-83
2021/11/16 11:13:21;;;;;;;1.38;0.85;;;6.80;90.70;;;;;;4917402;29;20191;-81
2021/11/16 11:15:49;;;;;;;1.40;0.77;;;6.80;90.70;;;;;;4902703;29;20072;-81
2021/11/16 11:18:36;;;;;;;2.63;1.10;;;6.80;90.70;;;;;;4903273;29;20052;-82
2021/11/16 11:21:07;;;;;;;3.42;1.20;;;6.90;90.70;;;;;;4922511;29;20044;-81
2021/11/16 11:23:41;;;;;;;4.28;1.60;;;6.80;90.70;;;;;;4920995;29;20595;-78
2021/11/16 11:26:41;;;;;;;3.20;1.50;;;6.70;90.70;;;;;;4906144;29;20549;-81
2021/11/16 11:29:28;;;;;;;3.13;1.45;;;6.70;90.70;;;;;;4942747;29;20046;-81
2021/11/16 11:32:06;;;;;;;4.82;1.88;;;6.60;90.70;;;;;;4937836;29;20374;-80
2021/11/16 11:34:39;;;;;;;3.58;1.40;;;6.60;90.70;;;;;;4904289;29;20057;-81
2021/11/16 11:37:09;;;;;;;3.53;1.50;;;6.50;90.70;;;;;;4937244;29;20100;-80
2021/11/16 11:39:40;;;;;;;3.88;1.50;;;6.70;90.70;;;;;;4921775;29;20039;-82
2021/11/16 11:43:24;;;;;;;3.00;1.20;;;6.60;90.70;;;;;;4892717;29;20043;-84
2021/11/16 11:45:55;;;;;;;2.70;0.90;;;6.60;90.70;;;;;;4928107;29;20059;-81
2021/11/16 11:48:52;;;;;;;2.97;1.27;;;6.60;90.70;;;;;;4914321;29;20052;-81
2021/11/16 11:51:18;;;;;;;3.13;1.30;;;6.60;90.70;;;;;;4893369;29;20051;-80
2021/11/16 11:53:49;;;;;;;2.67;1.10;;;6.50;90.60;;;;;;4930861;29;20918;-81
2021/11/16 11:56:18;;;;;;;3.78;1.50;;;6.60;90.70;;;;;;4898219;29;20035;-82
2021/11/16 11:58:45;;;;;;;3.45;1.40;;;6.70;90.70;;;;;;4856026;29;20053;-80
2021/11/16 12:01:15;;;;;;;3.03;1.48;;;6.60;90.70;;;;;;4865298;29;20141;-79
2021/11/16 12:03:43;;;;;;;3.30;1.50;;;6.60;90.70;;;;;;4868979;29;20106;-80
2021/11/16 12:06:09;;;;;;;3.65;1.30;;;6.60;90.70;;;;;;4861142;29;20057;-78
2021/11/16 12:08:44;;;;;;;4.53;1.60;;;6.50;90.70;;;;;;4856911;29;20404;-82
2021/11/16 12:12:16;;;;;;;2.97;1.10;;;6.60;90.70;;;;;;4864560;29;20051;-86
2021/11/16 12:15:23;;;;;;;2.03;0.95;;;6.70;90.70;;;;;;4843976;29;20143;-80
2021/11/16 12:17:52;;;;;;;2.97;1.35;;;6.60;90.70;;;;;;4833161;29;20037;-81
2021/11/16 12:20:39;;;;;;;3.30;1.10;;;6.60;90.70;;;;;;4826805;29;20065;-82
2021/11/16 12:23:09;;;;;;;2.55;1.25;;;6.60;90.70;;;;;;4838736;29;20162;-82
2021/11/16 12:26:28;;;;;;;4.15;1.40;;;6.60;90.60;;;;;;4804422;29;20050;-85
2021/11/16 12:29:15;;;;;;;3.85;1.40;;;6.60;90.60;;;;;;4822100;29;20045;-79
2021/11/16 12:31:42;;;;;;;3.63;1.50;;;6.50;90.60;;;;;;4844279;29;20485;-79
2021/11/16 12:34:08;;;;;;;3.28;1.30;;;6.60;90.70;;;;;;4828935;29;20125;-80
2021/11/16 12:36:50;;;;;;;1.75;1.15;;;6.50;90.70;;;;;;4843867;29;20050;-80
2021/11/16 12:39:23;;;;;;;;;;;6.60;90.70;;;;;;4877759;29;20044;-80
2021/11/16 12:41:52;;;;;;;2.20;1.00;;;6.60;90.70;;;;;;4897566;29;19921;-80
2021/11/16 12:44:43;;;;;;;2.55;1.15;;;6.60;90.60;;;;;;4894426;29;20136;-80
2021/11/16 12:47:12;;;;;;;2.83;1.00;;;6.50;90.70;;;;;;4896056;29;20048;-80
2021/11/16 12:49:40;;;;;;;2.25;1.10;;;6.50;90.70;;;;;;4935176;29;20074;-80
2021/11/16 12:52:26;;;;;;;2.92;1.20;;;6.60;90.70;;;;;;4938297;29;20032;-80
2021/11/16 12:55:55;;;;;;;3.65;1.65;;;6.50;90.70;;;;;;4913506;29;20100;-86
2021/11/16 12:58:50;;;;;;;3.35;1.48;;;6.60;90.80;;;;;;4915899;29;20055;-86
2021/11/16 13:01:37;;;;;;;1.98;1.10;;;6.60;90.70;;;;;;4862665;29;20127;-83
2021/11/16 13:04:07;;;;;;;3.53;1.50;;;6.60;90.70;;;;;;4846090;29;20117;-81
2021/11/16 13:06:35;;;;;;;3.10;1.17;;;6.60;90.70;;;;;;4880683;29;20049;-83
2021/11/16 13:12:48;;;;;;;2.92;1.20;;;6.60;90.70;;;;;;4833899;29;20071;-81
2021/11/16 13:15:37;;;;;;;1.48;0.80;;;6.60;90.70;;;;;;4842649;29;20070;-79
2021/11/16 13:18:08;;;;;;;4.53;1.60;;;6.60;90.70;;;;;;4844017;29;20061;-81
2021/11/16 13:20:45;;;;;;;3.63;1.13;;;6.60;90.70;;;;;;4818483;29;20058;-77
2021/11/16 13:23:22;;;;;;;3.75;1.40;;;6.60;90.80;;;;;;4836556;29;20050;-79
2021/11/16 13:26:04;;;;;;;2.70;1.30;;;6.60;90.70;;;;;;4853992;29;20054;-85
2021/11/16 13:28:55;;;;;;;3.08;1.50;;;6.60;90.80;;;;;;4811529;29;20051;-79
2021/11/16 13:31:33;;;;;;;2.88;1.42;;;6.50;90.80;;;;;;4811747;29;20086;-79
2021/11/16 13:34:12;;;;;;;2.67;1.20;;;6.60;90.80;;;;;;4840223;29;20145;-79
2021/11/16 13:36:44;;;;;;;2.90;1.08;;;6.50;90.80;;;;;;4824777;29;20445;-79
2021/11/16 13:39:31;;;;;;;1.73;0.90;;;6.50;90.80;;;;;;4824780;29;20048;-79
2021/11/16 13:42:04;;;;;;;2.53;1.20;;;6.50;90.80;;;;;;4839631;29;20049;-79
2021/11/16 13:44:52;;;;;;;2.65;1.40;;;6.40;90.80;;;;;;4825442;29;20062;-79